createdAt,value
2018-03-30T00:02:01.396Z,5.60
2018-03-30T00:04:29.575Z,5.00
2018-03-30T00:06:57.706Z,5.60
2018-03-30T00:09:43.644Z,5.80
2018-03-30T00:12:11.769Z,4.90
2018-03-30T00:14:39.902Z,4.90
2018-03-30T00:17:08.051Z,4.90
2018-03-30T00:19:36.182Z,5.10
2018-03-30T00:22:04.359Z,4.80
2018-03-30T00:24:32.479Z,5.40
2018-03-30T00:27:00.638Z,5.30
2018-03-30T00:29:28.842Z,5.20
2018-03-30T00:31:56.995Z,4.90
2018-03-30T00:34:25.159Z,5.00
2018-03-30T00:36:53.293Z,4.80
2018-03-30T00:39:21.424Z,4.90
2018-03-30T00:41:49.573Z,5.10
2018-03-30T00:44:17.700Z,5.80
2018-03-30T00:46:45.832Z,5.60
2018-03-30T00:49:13.999Z,6.20
2018-03-30T00:51:42.132Z,6.40
2018-03-30T00:54:10.284Z,6.50
2018-03-30T00:56:38.428Z,6.10
2018-03-30T00:59:06.560Z,5.90
2018-03-30T01:01:35.492Z,5.70
2018-03-30T01:04:03.632Z,5.70
2018-03-30T01:06:32.555Z,5.60
2018-03-30T01:09:00.693Z,5.40
2018-03-30T01:11:29.583Z,5.20
2018-03-30T01:13:58.504Z,5.00
2018-03-30T01:16:27.269Z,5.60
2018-03-30T01:18:55.440Z,5.30
2018-03-30T01:21:24.355Z,5.20
2018-03-30T01:23:52.526Z,5.10
2018-03-30T01:26:20.658Z,5.10
2018-03-30T01:28:49.575Z,5.30
2018-03-30T01:31:17.716Z,5.00
2018-03-30T01:33:45.886Z,4.60
2018-03-30T01:36:14.096Z,4.50
2018-03-30T01:38:42.269Z,4.30
2018-03-30T01:41:10.407Z,4.70
2018-03-30T01:43:39.308Z,4.20
2018-03-30T01:46:08.247Z,4.40
2018-03-30T01:48:36.448Z,4.10
2018-03-30T01:51:04.594Z,4.10
2018-03-30T01:53:32.750Z,3.70
2018-03-30T01:56:00.887Z,3.50
2018-03-30T01:58:29.806Z,3.40
2018-03-30T02:00:57.948Z,3.70
2018-03-30T02:03:26.873Z,3.60
2018-03-30T02:05:55.013Z,3.80
2018-03-30T02:08:23.207Z,3.50
2018-03-30T02:10:51.334Z,3.30
2018-03-30T02:13:19.456Z,3.50
2018-03-30T02:15:47.608Z,3.30
2018-03-30T02:18:17.122Z,3.00
2018-03-30T02:20:45.289Z,2.70
2018-03-30T02:23:14.207Z,2.80
2018-03-30T02:25:42.332Z,2.80
2018-03-30T02:28:10.496Z,3.10
2018-03-30T02:30:38.622Z,2.90
2018-03-30T02:33:06.755Z,3.20
2018-03-30T02:35:35.689Z,3.10
2018-03-30T02:38:03.805Z,3.20
2018-03-30T02:40:31.967Z,3.00
2018-03-30T02:43:00.255Z,2.80
2018-03-30T02:45:28.406Z,2.60
2018-03-30T02:47:56.538Z,2.80
2018-03-30T02:50:24.673Z,3.10
2018-03-30T02:52:53.490Z,3.10
2018-03-30T02:55:21.628Z,2.80
2018-03-30T02:57:50.401Z,3.30
2018-03-30T03:00:18.531Z,4.00
2018-03-30T03:02:46.658Z,3.90
2018-03-30T03:05:14.808Z,3.40
2018-03-30T03:07:42.951Z,3.30
2018-03-30T03:10:11.087Z,3.40
2018-03-30T03:12:40.017Z,3.40
2018-03-30T03:15:08.159Z,3.60
2018-03-30T03:17:37.052Z,3.50
2018-03-30T03:20:06.180Z,3.70
2018-03-30T03:22:34.352Z,3.90
2018-03-30T03:25:02.503Z,3.70
2018-03-30T03:27:30.745Z,3.50
2018-03-30T03:29:58.902Z,2.70
2018-03-30T03:32:27.038Z,2.80
2018-03-30T03:34:55.183Z,3.40
2018-03-30T03:37:24.096Z,3.90
2018-03-30T03:39:52.242Z,3.60
2018-03-30T03:42:22.414Z,3.80
2018-03-30T03:44:50.567Z,3.50
2018-03-30T03:47:18.947Z,3.20
2018-03-30T03:49:47.100Z,3.20
2018-03-30T03:52:15.231Z,3.80
2018-03-30T03:54:43.350Z,3.70
2018-03-30T03:57:11.491Z,3.80
2018-03-30T03:59:40.392Z,3.70
2018-03-30T04:02:09.288Z,3.90
2018-03-30T04:04:38.627Z,4.00
2018-03-30T04:07:06.759Z,3.90
2018-03-30T04:09:35.653Z,3.50
2018-03-30T04:12:03.849Z,3.20
2018-03-30T04:14:32.043Z,3.60
2018-03-30T04:17:00.194Z,3.70
2018-03-30T04:19:28.324Z,2.90
2018-03-30T04:21:57.928Z,3.20
2018-03-30T04:24:26.857Z,3.20
2018-03-30T04:26:55.023Z,3.50
2018-03-30T04:29:23.158Z,3.60
2018-03-30T04:31:51.311Z,3.00
2018-03-30T04:34:19.451Z,2.90
2018-03-30T04:36:47.588Z,2.50
2018-03-30T04:39:16.511Z,2.70
2018-03-30T04:41:44.648Z,2.90
2018-03-30T04:44:13.568Z,2.00
2018-03-30T04:46:41.683Z,2.70
2018-03-30T04:49:09.827Z,2.50
2018-03-30T04:51:37.992Z,1.50
2018-03-30T04:54:06.123Z,1.90
2018-03-30T04:56:35.050Z,2.30
2018-03-30T04:59:03.195Z,2.50
2018-03-30T05:01:32.595Z,2.50
2018-03-30T05:04:01.532Z,1.60
2018-03-30T05:06:29.692Z,3.10
2018-03-30T05:08:57.819Z,3.60
2018-03-30T05:11:26.932Z,3.90
2018-03-30T05:13:55.828Z,3.80
2018-03-30T05:16:23.999Z,3.90
2018-03-30T05:18:52.126Z,4.10
2018-03-30T05:21:20.248Z,4.30
2018-03-30T05:23:48.397Z,4.40
2018-03-30T05:26:17.305Z,4.20
2018-03-30T05:28:45.467Z,3.20
2018-03-30T05:31:14.387Z,3.10
2018-03-30T05:33:42.512Z,2.60
2018-03-30T05:36:11.101Z,3.10
2018-03-30T05:38:39.252Z,4.30
2018-03-30T05:41:07.395Z,4.60
2018-03-30T05:43:35.926Z,4.90
2018-03-30T05:46:04.087Z,5.00
2018-03-30T05:48:32.207Z,5.00
2018-03-30T05:51:00.391Z,5.20
2018-03-30T05:53:28.558Z,5.10
2018-03-30T05:55:56.677Z,5.30
2018-03-30T05:58:24.836Z,5.50
2018-03-30T06:00:52.956Z,5.50
2018-03-30T06:03:21.092Z,5.60
2018-03-30T06:05:49.255Z,5.70
2018-03-30T06:08:17.399Z,5.80
2018-03-30T06:10:45.545Z,6.10
2018-03-30T06:13:13.742Z,6.40
2018-03-30T06:15:41.891Z,6.50
2018-03-30T06:18:10.044Z,6.70
2018-03-30T06:20:38.930Z,7.00
2018-03-30T06:23:07.067Z,6.90
2018-03-30T06:25:35.203Z,7.10
2018-03-30T06:28:03.371Z,7.20
2018-03-30T06:30:31.504Z,7.30
2018-03-30T06:32:59.631Z,7.50
2018-03-30T06:35:27.825Z,7.70
2018-03-30T06:37:56.087Z,7.60
2018-03-30T06:40:24.247Z,7.40
2018-03-30T06:42:52.377Z,7.50
2018-03-30T06:45:20.520Z,7.60
2018-03-30T06:47:48.651Z,7.90
2018-03-30T06:50:16.795Z,7.90
2018-03-30T06:52:44.949Z,8.10
2018-03-30T06:55:13.084Z,8.20
2018-03-30T06:57:41.269Z,8.30
2018-03-30T07:00:09.403Z,7.80
2018-03-30T07:02:38.324Z,8.00
2018-03-30T07:05:06.471Z,8.20
2018-03-30T07:07:34.641Z,8.20
2018-03-30T07:10:02.783Z,8.40
2018-03-30T07:12:30.952Z,8.30
2018-03-30T07:14:59.089Z,8.10
2018-03-30T07:17:27.263Z,8.30
2018-03-30T07:19:55.403Z,8.70
2018-03-30T07:22:23.601Z,9.20
2018-03-30T07:24:52.407Z,9.30
2018-03-30T07:27:20.585Z,9.00
2018-03-30T07:29:48.752Z,9.40
2018-03-30T07:32:17.056Z,9.50
2018-03-30T07:34:45.199Z,9.80
2018-03-30T07:37:13.368Z,9.70
2018-03-30T07:39:41.503Z,9.20
2018-03-30T07:42:09.650Z,9.10
2018-03-30T07:44:38.578Z,9.70
2018-03-30T07:47:06.761Z,10.30
2018-03-30T07:49:34.892Z,9.90
2018-03-30T07:52:03.840Z,10.30
2018-03-30T07:54:31.995Z,9.50
2018-03-30T07:57:00.153Z,8.50
2018-03-30T07:59:28.306Z,9.00
2018-03-30T08:01:57.207Z,8.60
2018-03-30T08:04:26.146Z,9.30
2018-03-30T08:06:54.280Z,9.50
2018-03-30T08:09:22.415Z,9.90
2018-03-30T08:11:50.583Z,9.80
2018-03-30T08:14:18.716Z,10.50
2018-03-30T08:16:46.847Z,10.90
2018-03-30T08:19:15.792Z,10.90
2018-03-30T08:21:43.955Z,10.90
2018-03-30T08:24:12.459Z,11.10
2018-03-30T08:26:40.684Z,10.70
2018-03-30T08:29:08.879Z,11.00
2018-03-30T08:31:37.054Z,11.00
2018-03-30T08:34:05.195Z,10.70
2018-03-30T08:36:33.419Z,10.00
2018-03-30T08:39:02.266Z,9.90
2018-03-30T08:41:30.428Z,10.40
2018-03-30T08:43:59.457Z,10.60
2018-03-30T08:46:27.607Z,9.40
2018-03-30T08:48:55.799Z,10.60
2018-03-30T08:51:23.948Z,10.50
2018-03-30T08:53:52.088Z,10.50
2018-03-30T08:56:20.411Z,11.00
2018-03-30T08:58:48.540Z,11.80
2018-03-30T09:01:16.683Z,12.40
2018-03-30T09:03:44.972Z,12.80
2018-03-30T09:06:13.111Z,13.10
2018-03-30T09:08:41.264Z,13.40
2018-03-30T09:11:10.222Z,11.50
2018-03-30T09:13:38.359Z,11.80
2018-03-30T09:16:06.504Z,11.30
2018-03-30T09:18:34.657Z,12.10
2018-03-30T09:21:02.791Z,12.50
2018-03-30T09:23:30.952Z,11.80
2018-03-30T09:25:59.129Z,12.70
2018-03-30T09:28:27.272Z,13.10
2018-03-30T09:30:55.415Z,11.50
2018-03-30T09:33:28.564Z,11.40
2018-03-30T09:35:57.208Z,11.30
2018-03-30T09:38:25.339Z,12.20
2018-03-30T09:40:53.496Z,13.10
2018-03-30T09:43:21.624Z,13.70
2018-03-30T09:45:49.760Z,14.40
2018-03-30T09:48:17.917Z,14.90
2018-03-30T09:50:46.059Z,14.80
2018-03-30T09:53:14.235Z,14.80
2018-03-30T09:55:42.373Z,15.10
2018-03-30T09:58:11.475Z,14.60
2018-03-30T10:00:44.251Z,14.70
2018-03-30T10:03:12.435Z,15.50
2018-03-30T10:05:40.580Z,15.60
2018-03-30T10:08:09.491Z,15.90
2018-03-30T10:10:38.416Z,15.10
2018-03-30T10:13:06.671Z,15.00
2018-03-30T10:15:34.906Z,14.80
2018-03-30T10:18:03.145Z,15.20
2018-03-30T10:20:31.299Z,15.50
2018-03-30T10:22:59.535Z,16.00
2018-03-30T10:25:27.806Z,15.20
2018-03-30T10:27:55.956Z,15.70
2018-03-30T10:30:25.135Z,16.10
2018-03-30T10:32:53.316Z,16.50
2018-03-30T10:35:22.556Z,16.20
2018-03-30T10:37:51.501Z,16.50
2018-03-30T10:40:20.848Z,16.70
2018-03-30T10:42:49.754Z,16.60
2018-03-30T10:45:19.729Z,16.90
2018-03-30T10:47:47.997Z,17.30
2018-03-30T10:50:16.131Z,17.30
2018-03-30T10:52:45.289Z,16.70
2018-03-30T10:55:14.202Z,16.20
2018-03-30T10:57:42.336Z,16.80
2018-03-30T11:00:10.513Z,17.20
2018-03-30T11:02:39.437Z,17.40
2018-03-30T11:05:07.594Z,17.60
2018-03-30T11:07:36.636Z,18.30
2018-03-30T11:10:04.799Z,18.50
2018-03-30T11:12:32.936Z,18.70
2018-03-30T11:15:01.148Z,19.20
2018-03-30T11:17:29.281Z,18.50
2018-03-30T11:19:58.626Z,18.90
2018-03-30T11:22:26.765Z,19.30
2018-03-30T11:24:54.903Z,19.80
2018-03-30T11:27:23.048Z,20.30
2018-03-30T11:29:51.194Z,20.70
2018-03-30T11:32:19.352Z,20.90
2018-03-30T11:34:47.508Z,20.50
2018-03-30T11:37:16.467Z,21.30
2018-03-30T11:39:44.914Z,21.30
2018-03-30T11:42:13.146Z,21.70
2018-03-30T11:44:41.390Z,22.20
2018-03-30T11:47:10.144Z,21.90
2018-03-30T11:49:38.948Z,23.30
2018-03-30T11:52:09.192Z,23.50
2018-03-30T11:54:37.966Z,23.70
2018-03-30T11:57:06.947Z,25.30
2018-03-30T11:59:35.115Z,23.90
2018-03-30T12:02:03.260Z,24.60
2018-03-30T12:04:32.247Z,25.30
2018-03-30T12:07:01.162Z,25.70
2018-03-30T12:09:29.667Z,26.50
2018-03-30T12:11:58.228Z,28.30
2018-03-30T12:14:26.399Z,30.00
2018-03-30T12:16:54.550Z,28.60
2018-03-30T12:19:23.465Z,30.20
2018-03-30T12:21:51.611Z,30.60
2018-03-30T12:24:20.548Z,32.10
2018-03-30T12:26:48.707Z,32.40
2018-03-30T12:29:16.828Z,34.20
2018-03-30T12:31:45.000Z,34.60
2018-03-30T12:34:13.147Z,34.60
2018-03-30T12:36:41.301Z,34.50
2018-03-30T12:39:09.643Z,36.10
2018-03-30T12:41:38.535Z,36.90
2018-03-30T12:44:06.703Z,37.00
2018-03-30T12:46:35.619Z,37.40
2018-03-30T12:49:03.751Z,37.10
2018-03-30T12:51:32.675Z,37.00
2018-03-30T12:54:00.813Z,40.10
2018-03-30T12:56:29.752Z,39.50
2018-03-30T12:58:58.023Z,39.30
2018-03-30T13:01:26.187Z,39.70
2018-03-30T13:03:54.429Z,40.00
2018-03-30T13:06:23.444Z,40.80
2018-03-30T13:08:51.599Z,42.70
2018-03-30T13:11:20.526Z,42.60
2018-03-30T13:13:48.662Z,41.70
2018-03-30T13:16:17.733Z,41.70
2018-03-30T13:18:45.956Z,39.80
2018-03-30T13:21:14.152Z,40.10
2018-03-30T13:23:42.284Z,41.40
2018-03-30T13:26:11.169Z,40.60
2018-03-30T13:28:40.073Z,41.70
2018-03-30T13:31:08.489Z,41.50
2018-03-30T13:33:37.129Z,40.70
2018-03-30T13:36:05.274Z,42.90
2018-03-30T13:38:33.502Z,41.40
2018-03-30T13:41:01.631Z,42.00
2018-03-30T13:43:30.539Z,42.30
2018-03-30T13:45:58.696Z,43.10
2018-03-30T13:48:27.612Z,43.90
2018-03-30T13:51:06.793Z,44.20
2018-03-30T13:53:39.700Z,44.00
2018-03-30T13:59:09.970Z,44.20
2018-03-30T14:01:41.218Z,42.00
2018-03-30T14:04:15.604Z,40.80
2018-03-30T14:06:52.951Z,40.70
2018-03-30T14:09:29.393Z,41.00
2018-03-30T14:14:55.011Z,42.10
2018-03-30T14:17:30.867Z,41.90
2018-03-30T14:20:11.303Z,41.30
2018-03-30T14:22:55.871Z,41.30
2018-03-30T14:25:31.301Z,41.20
2018-03-30T14:28:09.687Z,41.70
2018-03-30T14:30:44.416Z,42.40
2018-03-30T14:33:16.347Z,40.10
2018-03-30T14:36:08.945Z,40.50
2018-03-30T14:38:45.675Z,39.70
2018-03-30T14:41:20.803Z,40.80
2018-03-30T14:43:52.554Z,39.60
2018-03-30T14:46:41.851Z,38.50
2018-03-30T14:49:15.627Z,38.30
2018-03-30T14:51:47.039Z,39.00
2018-03-30T14:54:31.639Z,36.60
2018-03-30T14:57:22.302Z,37.10
2018-03-30T14:59:55.633Z,38.10
2018-03-30T15:02:31.288Z,38.90
2018-03-30T15:05:23.076Z,38.70
2018-03-30T15:08:04.321Z,35.10
2018-03-30T15:13:32.766Z,34.80
2018-03-30T15:19:13.834Z,35.70
2018-03-30T15:21:47.495Z,36.80
2018-03-30T15:24:19.521Z,36.30
2018-03-30T15:26:53.276Z,37.00
2018-03-30T15:29:21.403Z,37.40
2018-03-30T15:35:08.911Z,34.70
2018-03-30T15:37:37.115Z,32.50
2018-03-30T15:40:11.859Z,32.20
2018-03-30T15:42:48.312Z,32.50
2018-03-30T15:45:25.786Z,32.60
2018-03-30T15:47:54.695Z,32.70
2018-03-30T15:50:22.836Z,31.20
2018-03-30T15:52:51.943Z,31.60
2018-03-30T15:55:20.860Z,30.30
2018-03-30T15:57:49.022Z,29.80
2018-03-30T16:00:18.102Z,26.30
2018-03-30T16:02:47.023Z,25.00
2018-03-30T16:05:15.190Z,24.40
2018-03-30T16:07:43.336Z,25.20
2018-03-30T16:10:18.259Z,24.70
2018-03-30T16:12:47.996Z,24.90
2018-03-30T16:15:16.243Z,25.50
2018-03-30T16:17:45.178Z,25.80
2018-03-30T16:20:12.565Z,25.10
2018-03-30T16:22:39.979Z,24.30
2018-03-30T16:25:07.386Z,23.90
2018-03-30T16:27:34.890Z,22.10
2018-03-30T16:30:02.277Z,21.60
2018-03-30T16:32:29.684Z,20.40
2018-03-30T16:34:57.091Z,19.00
2018-03-30T16:37:24.649Z,18.20
2018-03-30T16:39:52.857Z,17.00
2018-03-30T16:42:21.057Z,16.30
2018-03-30T16:44:48.524Z,16.30
2018-03-30T16:47:15.912Z,16.00
2018-03-30T16:49:43.796Z,15.50
2018-03-30T16:52:11.954Z,15.10
2018-03-30T16:54:39.351Z,15.00
2018-03-30T16:57:06.752Z,14.70
2018-03-30T16:59:34.471Z,14.10
2018-03-30T17:02:02.018Z,13.90
2018-03-30T17:04:29.443Z,13.90
2018-03-30T17:06:56.852Z,13.60
2018-03-30T17:09:24.242Z,13.30
2018-03-30T17:11:51.803Z,12.50
2018-03-30T17:14:19.293Z,12.10
2018-03-30T17:16:47.505Z,11.70
2018-03-30T17:19:14.901Z,11.60
2018-03-30T17:21:42.316Z,11.90
2018-03-30T17:24:09.735Z,11.50
2018-03-30T17:26:37.125Z,11.10
2018-03-30T17:29:04.531Z,10.90
2018-03-30T17:31:32.915Z,10.70
2018-03-30T17:34:01.473Z,10.90
2018-03-30T17:36:28.982Z,10.60
2018-03-30T17:38:56.382Z,10.10
2018-03-30T17:41:23.775Z,10.30
2018-03-30T17:43:51.377Z,10.30
2018-03-30T17:46:18.794Z,10.10
2018-03-30T17:48:46.196Z,10.00
2018-03-30T17:51:13.614Z,10.00
2018-03-30T17:53:41.024Z,10.00
2018-03-30T17:56:09.214Z,9.80
2018-03-30T17:58:57.309Z,9.70
2018-03-30T18:01:24.699Z,9.30
2018-03-30T18:03:52.093Z,9.40
2018-03-30T18:06:20.264Z,9.60
2018-03-30T18:08:48.489Z,9.40
2018-03-30T18:11:15.871Z,9.40
2018-03-30T18:13:43.256Z,9.60
2018-03-30T18:16:11.453Z,9.30
2018-03-30T18:18:38.855Z,9.20
2018-03-30T18:21:06.265Z,9.00
2018-03-30T18:23:33.671Z,8.80
2018-03-30T18:26:01.060Z,9.00
2018-03-30T18:28:28.451Z,8.50
2018-03-30T18:30:55.873Z,8.40
2018-03-30T18:33:23.343Z,8.60
2018-03-30T18:35:50.776Z,8.40
2018-03-30T18:38:18.161Z,8.50
2018-03-30T18:40:45.548Z,8.20
2018-03-30T18:43:12.950Z,8.30
2018-03-30T18:45:40.377Z,8.20
2018-03-30T18:48:09.670Z,8.10
2018-03-30T18:50:37.841Z,7.90
2018-03-30T18:53:15.651Z,7.90
2018-03-30T18:55:43.804Z,7.80
2018-03-30T18:58:11.198Z,7.90
2018-03-30T19:00:38.596Z,8.10
2018-03-30T19:03:05.970Z,8.00
2018-03-30T19:05:33.376Z,8.10
2018-03-30T19:08:00.751Z,7.70
2018-03-30T19:10:28.188Z,7.90
2018-03-30T19:12:55.573Z,7.50
2018-03-30T19:15:22.973Z,7.40
2018-03-30T19:17:51.143Z,7.40
2018-03-30T19:20:19.345Z,7.20
2018-03-30T19:22:46.742Z,7.70
2018-03-30T19:25:14.152Z,7.70
2018-03-30T19:27:41.587Z,7.70
2018-03-30T19:30:09.753Z,7.80
2018-03-30T19:32:37.908Z,7.70
2018-03-30T19:35:05.417Z,7.60
2018-03-30T19:37:32.813Z,7.20
2018-03-30T19:40:00.208Z,7.40
2018-03-30T19:42:27.588Z,7.30
2018-03-30T19:44:54.978Z,7.20
2018-03-30T19:47:22.355Z,7.20
2018-03-30T19:49:50.550Z,7.30
2018-03-30T19:52:17.930Z,7.10
2018-03-30T19:54:45.311Z,7.20
2018-03-30T19:57:12.712Z,7.10
2018-03-30T19:59:40.168Z,7.20
2018-03-30T20:02:07.567Z,7.50
2018-03-30T20:04:34.984Z,7.40
2018-03-30T20:07:02.391Z,7.40
2018-03-30T20:09:29.790Z,7.50
2018-03-30T20:11:57.179Z,7.40
2018-03-30T20:14:24.591Z,7.20
2018-03-30T20:16:51.983Z,7.40
2018-03-30T20:19:19.365Z,7.30
2018-03-30T20:21:46.766Z,7.10
2018-03-30T20:24:14.163Z,6.80
2018-03-30T20:26:41.559Z,7.10
2018-03-30T20:29:09.714Z,7.30
2018-03-30T20:31:37.112Z,7.20
2018-03-30T20:34:05.016Z,7.10
2018-03-30T20:36:32.422Z,7.10
2018-03-30T20:38:59.798Z,7.40
2018-03-30T20:41:27.203Z,7.20
2018-03-30T20:43:55.380Z,7.20
2018-03-30T20:46:23.553Z,6.90
2018-03-30T20:48:51.695Z,7.10
2018-03-30T20:51:19.080Z,6.80
2018-03-30T20:53:47.256Z,7.00
2018-03-30T20:56:15.407Z,6.90
2018-03-30T20:58:42.813Z,6.90
2018-03-30T21:01:10.235Z,6.70
2018-03-30T21:03:38.445Z,7.00
2018-03-30T21:06:05.839Z,6.90
2018-03-30T21:08:33.259Z,6.90
2018-03-30T21:11:01.383Z,7.10
2018-03-30T21:13:28.888Z,7.00
2018-03-30T21:15:56.334Z,7.30
2018-03-30T21:18:23.711Z,7.10
2018-03-30T21:20:51.095Z,6.80
2018-03-30T21:23:18.594Z,6.80
2018-03-30T21:25:46.040Z,6.90
2018-03-30T21:28:13.443Z,6.70
2018-03-30T21:30:40.920Z,6.90
2018-03-30T21:33:08.420Z,6.70
2018-03-30T21:35:35.799Z,6.80
2018-03-30T21:38:03.189Z,6.70
2018-03-30T21:40:30.600Z,6.80
2018-03-30T21:42:58.011Z,6.60
2018-03-30T21:45:26.182Z,6.70
2018-03-30T21:47:54.319Z,6.70
2018-03-30T21:50:21.715Z,6.90
2018-03-30T21:52:49.886Z,6.60
2018-03-30T21:55:18.106Z,6.80
2018-03-30T21:57:45.544Z,6.60
2018-03-30T22:00:12.956Z,6.60
2018-03-30T22:02:40.432Z,6.60
2018-03-30T22:05:07.787Z,6.30
2018-03-30T22:07:35.931Z,6.10
2018-03-30T22:10:03.343Z,6.30
2018-03-30T22:12:31.222Z,6.40
2018-03-30T22:14:58.663Z,6.10
2018-03-30T22:17:26.053Z,6.40
2018-03-30T22:19:53.480Z,6.10
2018-03-30T22:22:20.886Z,5.90
2018-03-30T22:24:48.261Z,6.00
2018-03-30T22:27:16.409Z,6.00
2018-03-30T22:29:43.825Z,5.90
2018-03-30T22:32:11.220Z,6.10
2018-03-30T22:34:38.591Z,6.20
2018-03-30T22:37:06.784Z,6.10
2018-03-30T22:39:34.159Z,5.90
2018-03-30T22:42:01.547Z,5.50
2018-03-30T22:44:28.960Z,5.50
2018-03-30T22:46:56.403Z,5.90
2018-03-30T22:49:23.790Z,5.70
2018-03-30T22:51:51.187Z,5.90
2018-03-30T22:54:19.390Z,6.10
2018-03-30T22:56:46.772Z,5.80
2018-03-30T22:59:14.167Z,5.60
2018-03-30T23:01:42.303Z,5.80
2018-03-30T23:04:09.720Z,5.30
2018-03-30T23:06:37.101Z,5.10
2018-03-30T23:09:04.498Z,5.30
2018-03-30T23:11:32.659Z,5.30
2018-03-30T23:14:00.068Z,5.20
2018-03-30T23:16:27.465Z,5.30
2018-03-30T23:18:54.838Z,5.40
2018-03-30T23:21:23.066Z,5.00
2018-03-30T23:23:50.507Z,5.00
2018-03-30T23:26:17.895Z,4.90
2018-03-30T23:28:45.275Z,5.10
2018-03-30T23:31:12.676Z,5.10
2018-03-30T23:33:40.130Z,4.80
2018-03-30T23:36:07.533Z,5.30
2018-03-30T23:38:34.917Z,5.00
2018-03-30T23:41:02.336Z,5.10
2018-03-30T23:43:29.727Z,4.90
2018-03-30T23:45:57.111Z,4.60
2018-03-30T23:48:24.530Z,4.80
2018-03-30T23:50:52.680Z,4.80
2018-03-30T23:53:20.050Z,4.90
2018-03-30T23:55:48.247Z,4.60
2018-03-30T23:58:15.762Z,4.90
